Pagrindinis puslapis
METAR-TAF:

METAR-TAF

Oro uostai :

Čijampino oro uostas

Roma Čijampino, Italija

platuma: 41-47N, ilguma: 012-35E, Aukštis: 129 m

Dabartinis oras

Ataskaita buvo paskelbta 20 minutes, ne 18:50 UTC
Vėjas 3 kt iš Pietvakarių
Temperatūra 11°C
Drėgmė 76%
Slėgis 1031 hPa
Matomumas 10 km arba daugiau
nėra debesų žemiau 1500 m ir nėra kamuolinių lietaus debesų

METAR: LIRA 021850Z 22003KT CAVOK 11/07 Q1031

Laikas: 20:10 (19:10 UTC)

Prognozė

Ataskaita buvo paskelbta 2 valandos ir 10 minutes, ne 17:00 UTC
Prognozė galioja nuo 02 metu 18 UTC su 03 metu 18 UTC
Vėjas 5 kt nuo kintamojo kryptimis
Matomumas 10 km arba daugiau
nėra debesų žemiau 1500 m ir nėra kamuolinių lietaus debesų

TAF: LIRA 021700Z 0218/0318 VRB05KT CAVOK

Orai ataskaitas ir orų prognozės (METAR, TAF).

turimą stotys yra geltonos ir raudonos taškus žemėlapyje.

Perkelti pele per norėdami pamatyti stoties vardą.

Tada spustelėkite, norėdami matyti oro stebėjimo ir prognozės.

Norėdami pakeisti žemėlapį: spustelėkite ant žalios mygtukų su juodo kryžiaus žemyn,; žalią mygtuką su brūkšneliu, jei norite nutolinti; arba žalių rodyklių gretimoms žemėlapius.


METAR-TAF: